Marienleuchte, Germany

6:50 AM CEST on July 28, 2014 (GMT +0200)
Bcshei (ISCHLESW80) Elev 39 ft | 54.37 °N, 10.99 °E | Change Station

Current weather conditions updated 2 seconds ago

Clear
Clear
69.8 °F
Feels Like 69.8 °F
N
0.0
Wind Variable Wind from NW
Gusts 0.0 mph

Today is forecast to be Much Cooler than yesterday.

Today
High -- | Low -- °F
--% Chance of Precip.
Yesterday
High -- | Low -- °F
Precip. -- in
5:19 AM 9:22 PM
New Moon, 1% visible
Pressure 29.95 in
Visibility 6.2 miles
Clouds
Dew Point 68 °F
Humidity 93%
Rainfall 0.01 in
Snow Depth Not available.
UV 1.0 out of 12
Pollen Not available.
Air Quality Not available.
Flu Activity Not available.
METAR EKAV 280420Z AUTO 33007KT 9999NDV NCD 21/18 Q1014

More Conditions Fewer Conditions

Pressure 29.95 in
Visibility 6.2 miles
Clouds
Dew Point 68 °F
Humidity 93%
Rainfall 0.01 in
Snow Depth Not available.
UV 1.0 out of 12
Pollen Not available.
Air Quality Not available.
Flu Activity Not available.
METAR EKAV 280420Z AUTO 33007KT 9999NDV NCD 21/18 Q1014

More Conditions Fewer Conditions

10-Day Weather Forecast

Almanac

Astronomy

Jul. 28, 2014 Rise Set
Actual Time 5:19 AM CEST 9:22 PM CEST
Civil Twilight 4:32 AM CEST 10:09 PM CEST
Nautical Twilight 3:23 AM CEST 11:17 PM CEST
Astronomical Twilight 1:54 AM CEST 12:49 AM CEST
Moon 7:09 AM CEST 9:26 PM CEST
Length of Visible Light 17h 37m
Length of Day
16h 03m
Tomorrow will be 3m 26s shorter.
New Moon, 1% of the Moon is Illuminated
Today
New Moon
Aug 3
First Quarter
Aug 10
Full
Aug 17
Last Quarter
Aug 25
New

Yesterday's Extremes

Country Highs Country Lows

Community

WunderPhotos

Upload Photos

1,738,307 photos uploaded!

Nearby

Snow Depth

Not available.

Earthquake Activity

City Distance Mag. Time & Date
No recent earthquake activity has been reported nearby.
Minimum magnitude displayed is 2.5.

Coastal Water Temperatures

Place Temperature
No Stations Reporting

Nearby Weather Stations

Station Location Temp. Dew Point Humidity Wind Precip. Elev Updated Type
Bcshei, Heiligenhafen 69.8 °F 68 °F 93% NW  at  0.0 mph 0.00 in / hr 39 ft 6:50 AM CEST Rapid Fire
Søllested 63.5 °F 63 °F 97% West  at  0.0 mph 0.01 in / hr 7 ft 6:50 AM CEST Rapid Fire
Lolland, Maribo 65.4 °F 64 °F 96% WNW  at  2.3 mph 0.00 in / hr 0 ft 6:49 AM CEST Rapid Fire
Nakskov 65.6 °F 65 °F 98% NW  at  0.0 mph 0.00 in / hr 12 ft 6:50 AM CEST Rapid Fire

Show More Stations Show Fewer Stations